sensor_id;sensor_type;location;lat;lon;timestamp;P1;durP1;ratioP1;P2;durP2;ratioP2
59418;SDS011;45224;50.904;6.038;2024-02-26T00:01:20;1.55;;;0.93;;
59418;SDS011;45224;50.904;6.038;2024-02-26T00:02:51;1.73;;;0.70;;
59418;SDS011;45224;50.904;6.038;2024-02-26T00:04:21;2.20;;;0.95;;
59418;SDS011;45224;50.904;6.038;2024-02-26T00:05:52;1.67;;;0.98;;
59418;SDS011;45224;50.904;6.038;2024-02-26T00:07:22;0.98;;;0.80;;
59418;SDS011;45224;50.904;6.038;2024-02-26T00:08:53;1.42;;;0.80;;
59418;SDS011;45224;50.904;6.038;2024-02-26T00:10:23;1.60;;;0.85;;
59418;SDS011;45224;50.904;6.038;2024-02-26T00:11:54;2.88;;;0.90;;
59418;SDS011;45224;50.904;6.038;2024-02-26T00:13:25;1.98;;;0.80;;
59418;SDS011;45224;50.904;6.038;2024-02-26T00:14:55;2.00;;;1.02;;
59418;SDS011;45224;50.904;6.038;2024-02-26T00:16:28;1.02;;;0.73;;
59418;SDS011;45224;50.904;6.038;2024-02-26T00:17:58;0.85;;;0.63;;
59418;SDS011;45224;50.904;6.038;2024-02-26T00:19:29;1.35;;;0.70;;
59418;SDS011;45224;50.904;6.038;2024-02-26T00:20:59;1.45;;;0.90;;
59418;SDS011;45224;50.904;6.038;2024-02-26T00:22:31;1.27;;;0.90;;
59418;SDS011;45224;50.904;6.038;2024-02-26T00:24:01;3.15;;;0.93;;
59418;SDS011;45224;50.904;6.038;2024-02-26T00:25:32;1.48;;;0.80;;
59418;SDS011;45224;50.904;6.038;2024-02-26T00:27:02;0.70;;;0.60;;
59418;SDS011;45224;50.904;6.038;2024-02-26T00:28:33;2.55;;;0.85;;
59418;SDS011;45224;50.904;6.038;2024-02-26T00:30:04;2.10;;;1.08;;
59418;SDS011;45224;50.904;6.038;2024-02-26T00:31:36;1.17;;;0.65;;
59418;SDS011;45224;50.904;6.038;2024-02-26T00:33:08;1.25;;;0.85;;
59418;SDS011;45224;50.904;6.038;2024-02-26T00:34:38;2.05;;;0.90;;
59418;SDS011;45224;50.904;6.038;2024-02-26T00:36:09;1.90;;;0.80;;
59418;SDS011;45224;50.904;6.038;2024-02-26T00:37:39;2.85;;;0.90;;
59418;SDS011;45224;50.904;6.038;2024-02-26T00:39:11;3.85;;;0.88;;
59418;SDS011;45224;50.904;6.038;2024-02-26T00:40:41;1.40;;;1.00;;
59418;SDS011;45224;50.904;6.038;2024-02-26T00:42:12;2.28;;;0.90;;
59418;SDS011;45224;50.904;6.038;2024-02-26T00:43:42;1.80;;;0.88;;
59418;SDS011;45224;50.904;6.038;2024-02-26T00:45:13;1.27;;;0.63;;
59418;SDS011;45224;50.904;6.038;2024-02-26T00:46:44;1.25;;;0.75;;
59418;SDS011;45224;50.904;6.038;2024-02-26T00:48:14;2.58;;;0.95;;
59418;SDS011;45224;50.904;6.038;2024-02-26T00:49:45;1.48;;;0.80;;
59418;SDS011;45224;50.904;6.038;2024-02-26T00:51:15;0.88;;;0.60;;
59418;SDS011;45224;50.904;6.038;2024-02-26T00:52:46;3.65;;;0.88;;
59418;SDS011;45224;50.904;6.038;2024-02-26T00:54:16;1.90;;;0.90;;
59418;SDS011;45224;50.904;6.038;2024-02-26T00:55:46;1.65;;;0.82;;
59418;SDS011;45224;50.904;6.038;2024-02-26T00:57:17;1.50;;;0.60;;
59418;SDS011;45224;50.904;6.038;2024-02-26T00:58:47;1.85;;;0.98;;
59418;SDS011;45224;50.904;6.038;2024-02-26T01:00:18;1.27;;;0.70;;
59418;SDS011;45224;50.904;6.038;2024-02-26T01:01:48;1.38;;;0.90;;
59418;SDS011;45224;50.904;6.038;2024-02-26T01:03:19;0.75;;;0.60;;
59418;SDS011;45224;50.904;6.038;2024-02-26T01:04:49;2.38;;;0.80;;
59418;SDS011;45224;50.904;6.038;2024-02-26T01:06:20;1.25;;;0.90;;
59418;SDS011;45224;50.904;6.038;2024-02-26T01:07:52;2.10;;;0.98;;
59418;SDS011;45224;50.904;6.038;2024-02-26T01:09:22;2.28;;;1.20;;
59418;SDS011;45224;50.904;6.038;2024-02-26T01:10:53;1.58;;;1.00;;
59418;SDS011;45224;50.904;6.038;2024-02-26T01:12:23;9.27;;;1.70;;
59418;SDS011;45224;50.904;6.038;2024-02-26T01:13:54;2.88;;;1.20;;
59418;SDS011;45224;50.904;6.038;2024-02-26T01:15:26;2.90;;;1.17;;
59418;SDS011;45224;50.904;6.038;2024-02-26T01:16:57;2.60;;;1.15;;
59418;SDS011;45224;50.904;6.038;2024-02-26T01:18:27;2.45;;;1.30;;
59418;SDS011;45224;50.904;6.038;2024-02-26T01:19:58;3.30;;;1.33;;
59418;SDS011;45224;50.904;6.038;2024-02-26T01:21:28;1.40;;;0.85;;
59418;SDS011;45224;50.904;6.038;2024-02-26T01:23:00;1.55;;;1.20;;
59418;SDS011;45224;50.904;6.038;2024-02-26T01:24:30;3.60;;;1.13;;
59418;SDS011;45224;50.904;6.038;2024-02-26T01:26:01;3.45;;;1.20;;
59418;SDS011;45224;50.904;6.038;2024-02-26T01:27:32;3.38;;;1.60;;
59418;SDS011;45224;50.904;6.038;2024-02-26T01:29:03;2.72;;;1.17;;
59418;SDS011;45224;50.904;6.038;2024-02-26T01:30:33;2.53;;;1.30;;
59418;SDS011;45224;50.904;6.038;2024-02-26T01:32:04;2.90;;;0.90;;
59418;SDS011;45224;50.904;6.038;2024-02-26T01:33:36;1.45;;;0.80;;
59418;SDS011;45224;50.904;6.038;2024-02-26T01:35:06;2.80;;;0.95;;
59418;SDS011;45224;50.904;6.038;2024-02-26T01:36:40;1.50;;;0.70;;
59418;SDS011;45224;50.904;6.038;2024-02-26T01:38:11;2.10;;;0.80;;
59418;SDS011;45224;50.904;6.038;2024-02-26T01:39:41;1.13;;;0.73;;
59418;SDS011;45224;50.904;6.038;2024-02-26T01:41:13;0.77;;;0.77;;
59418;SDS011;45224;50.904;6.038;2024-02-26T01:42:44;1.73;;;0.75;;
59418;SDS011;45224;50.904;6.038;2024-02-26T01:44:15;1.33;;;0.80;;
59418;SDS011;45224;50.904;6.038;2024-02-26T01:45:45;1.10;;;0.40;;
59418;SDS011;45224;50.904;6.038;2024-02-26T01:47:16;3.28;;;0.70;;
59418;SDS011;45224;50.904;6.038;2024-02-26T01:48:47;1.33;;;1.00;;
59418;SDS011;45224;50.904;6.038;2024-02-26T01:50:20;1.80;;;0.70;;
59418;SDS011;45224;50.904;6.038;2024-02-26T01:51:52;0.82;;;0.65;;
59418;SDS011;45224;50.904;6.038;2024-02-26T01:53:22;1.55;;;0.90;;
59418;SDS011;45224;50.904;6.038;2024-02-26T01:54:53;2.22;;;1.00;;
59418;SDS011;45224;50.904;6.038;2024-02-26T01:56:24;1.20;;;0.70;;
59418;SDS011;45224;50.904;6.038;2024-02-26T01:58:00;1.05;;;0.82;;
59418;SDS011;45224;50.904;6.038;2024-02-26T01:59:31;1.80;;;0.80;;
59418;SDS011;45224;50.904;6.038;2024-02-26T02:01:02;2.25;;;0.90;;
59418;SDS011;45224;50.904;6.038;2024-02-26T02:02:33;1.92;;;0.80;;
59418;SDS011;45224;50.904;6.038;2024-02-26T02:04:04;1.10;;;0.75;;
59418;SDS011;45224;50.904;6.038;2024-02-26T02:05:35;1.88;;;1.00;;
59418;SDS011;45224;50.904;6.038;2024-02-26T02:07:11;3.17;;;1.08;;
59418;SDS011;45224;50.904;6.038;2024-02-26T02:08:42;3.33;;;1.08;;
59418;SDS011;45224;50.904;6.038;2024-02-26T02:10:13;2.20;;;1.00;;
59418;SDS011;45224;50.904;6.038;2024-02-26T02:11:45;1.80;;;0.88;;
59418;SDS011;45224;50.904;6.038;2024-02-26T02:13:18;1.73;;;0.80;;
59418;SDS011;45224;50.904;6.038;2024-02-26T02:14:49;1.42;;;0.90;;
59418;SDS011;45224;50.904;6.038;2024-02-26T02:16:19;1.08;;;0.70;;
59418;SDS011;45224;50.904;6.038;2024-02-26T02:17:49;1.90;;;1.02;;
59418;SDS011;45224;50.904;6.038;2024-02-26T02:19:20;4.03;;;0.88;;
59418;SDS011;45224;50.904;6.038;2024-02-26T02:20:51;1.77;;;0.85;;
59418;SDS011;45224;50.904;6.038;2024-02-26T02:22:22;1.77;;;0.88;;
59418;SDS011;45224;50.904;6.038;2024-02-26T02:23:52;1.45;;;0.82;;
59418;SDS011;45224;50.904;6.038;2024-02-26T02:25:22;2.25;;;0.88;;
59418;SDS011;45224;50.904;6.038;2024-02-26T02:26:53;3.90;;;0.75;;
59418;SDS011;45224;50.904;6.038;2024-02-26T02:28:24;2.45;;;0.80;;
59418;SDS011;45224;50.904;6.038;2024-02-26T02:29:56;2.58;;;0.80;;
59418;SDS011;45224;50.904;6.038;2024-02-26T02:31:26;0.82;;;0.63;;
59418;SDS011;45224;50.904;6.038;2024-02-26T02:32:57;1.98;;;0.95;;
59418;SDS011;45224;50.904;6.038;2024-02-26T02:34:31;2.00;;;0.77;;
59418;SDS011;45224;50.904;6.038;2024-02-26T02:36:02;1.27;;;0.82;;
59418;SDS011;45224;50.904;6.038;2024-02-26T02:37:33;4.13;;;1.40;;
59418;SDS011;45224;50.904;6.038;2024-02-26T02:39:04;1.17;;;0.75;;
59418;SDS011;45224;50.904;6.038;2024-02-26T02:40:34;1.50;;;0.93;;
59418;SDS011;45224;50.904;6.038;2024-02-26T02:42:05;1.02;;;0.70;;
59418;SDS011;45224;50.904;6.038;2024-02-26T02:43:35;1.33;;;0.88;;
59418;SDS011;45224;50.904;6.038;2024-02-26T02:45:06;0.73;;;0.70;;
59418;SDS011;45224;50.904;6.038;2024-02-26T02:46:37;1.33;;;0.75;;
59418;SDS011;45224;50.904;6.038;2024-02-26T02:48:08;1.02;;;0.80;;
59418;SDS011;45224;50.904;6.038;2024-02-26T02:49:39;1.85;;;0.80;;
59418;SDS011;45224;50.904;6.038;2024-02-26T02:51:09;1.77;;;0.88;;
59418;SDS011;45224;50.904;6.038;2024-02-26T02:52:40;1.02;;;0.80;;
59418;SDS011;45224;50.904;6.038;2024-02-26T02:54:11;1.23;;;0.88;;
59418;SDS011;45224;50.904;6.038;2024-02-26T02:55:41;1.52;;;0.90;;
59418;SDS011;45224;50.904;6.038;2024-02-26T02:57:11;1.10;;;0.90;;
59418;SDS011;45224;50.904;6.038;2024-02-26T02:58:42;1.33;;;0.80;;
59418;SDS011;45224;50.904;6.038;2024-02-26T03:00:12;1.50;;;0.80;;
59418;SDS011;45224;50.904;6.038;2024-02-26T03:01:43;2.40;;;1.00;;
59418;SDS011;45224;50.904;6.038;2024-02-26T03:03:14;2.40;;;0.90;;
59418;SDS011;45224;50.904;6.038;2024-02-26T03:04:44;1.38;;;1.08;;
59418;SDS011;45224;50.904;6.038;2024-02-26T03:06:14;1.38;;;0.90;;
59418;SDS011;45224;50.904;6.038;2024-02-26T03:07:45;2.00;;;0.88;;
59418;SDS011;45224;50.904;6.038;2024-02-26T03:09:15;4.28;;;0.77;;
59418;SDS011;45224;50.904;6.038;2024-02-26T03:10:46;1.80;;;1.00;;
59418;SDS011;45224;50.904;6.038;2024-02-26T03:12:16;4.57;;;1.05;;
59418;SDS011;45224;50.904;6.038;2024-02-26T03:13:48;1.67;;;1.45;;
59418;SDS011;45224;50.904;6.038;2024-02-26T03:15:18;2.47;;;0.90;;
59418;SDS011;45224;50.904;6.038;2024-02-26T03:16:49;2.47;;;0.90;;
59418;SDS011;45224;50.904;6.038;2024-02-26T03:18:19;2.92;;;0.85;;
59418;SDS011;45224;50.904;6.038;2024-02-26T03:19:50;1.98;;;1.00;;
59418;SDS011;45224;50.904;6.038;2024-02-26T03:21:24;2.25;;;0.82;;
59418;SDS011;45224;50.904;6.038;2024-02-26T03:22:55;1.90;;;0.88;;
59418;SDS011;45224;50.904;6.038;2024-02-26T03:24:25;1.10;;;0.95;;
59418;SDS011;45224;50.904;6.038;2024-02-26T03:25:56;1.17;;;0.90;;
59418;SDS011;45224;50.904;6.038;2024-02-26T03:27:26;2.10;;;1.02;;
59418;SDS011;45224;50.904;6.038;2024-02-26T03:28:57;1.23;;;0.90;;
59418;SDS011;45224;50.904;6.038;2024-02-26T03:30:27;3.33;;;1.13;;
59418;SDS011;45224;50.904;6.038;2024-02-26T03:31:58;1.85;;;0.90;;
59418;SDS011;45224;50.904;6.038;2024-02-26T03:33:28;2.33;;;0.88;;
59418;SDS011;45224;50.904;6.038;2024-02-26T03:34:59;1.13;;;0.85;;
59418;SDS011;45224;50.904;6.038;2024-02-26T03:36:30;1.83;;;0.90;;
59418;SDS011;45224;50.904;6.038;2024-02-26T03:38:01;4.03;;;0.90;;
59418;SDS011;45224;50.904;6.038;2024-02-26T03:39:32;2.67;;;0.75;;
59418;SDS011;45224;50.904;6.038;2024-02-26T03:41:03;1.80;;;0.90;;
59418;SDS011;45224;50.904;6.038;2024-02-26T03:42:33;2.05;;;1.05;;
59418;SDS011;45224;50.904;6.038;2024-02-26T03:44:04;2.00;;;1.00;;
59418;SDS011;45224;50.904;6.038;2024-02-26T03:45:34;3.45;;;1.17;;
59418;SDS011;45224;50.904;6.038;2024-02-26T03:47:05;1.45;;;0.90;;
59418;SDS011;45224;50.904;6.038;2024-02-26T03:48:35;1.63;;;1.00;;
59418;SDS011;45224;50.904;6.038;2024-02-26T03:50:06;1.73;;;1.10;;
59418;SDS011;45224;50.904;6.038;2024-02-26T03:51:37;1.23;;;0.90;;
59418;SDS011;45224;50.904;6.038;2024-02-26T03:53:07;1.17;;;0.82;;
59418;SDS011;45224;50.904;6.038;2024-02-26T03:54:39;2.28;;;1.00;;
59418;SDS011;45224;50.904;6.038;2024-02-26T03:56:10;4.75;;;1.50;;
59418;SDS011;45224;50.904;6.038;2024-02-26T03:57:41;2.15;;;0.93;;
59418;SDS011;45224;50.904;6.038;2024-02-26T03:59:12;1.67;;;1.10;;
59418;SDS011;45224;50.904;6.038;2024-02-26T04:00:42;1.60;;;0.70;;
59418;SDS011;45224;50.904;6.038;2024-02-26T04:02:13;2.35;;;1.00;;
59418;SDS011;45224;50.904;6.038;2024-02-26T04:03:43;2.38;;;1.00;;
59418;SDS011;45224;50.904;6.038;2024-02-26T04:05:14;1.63;;;0.70;;
59418;SDS011;45224;50.904;6.038;2024-02-26T04:06:45;1.42;;;1.20;;
59418;SDS011;45224;50.904;6.038;2024-02-26T04:08:16;1.80;;;1.00;;
59418;SDS011;45224;50.904;6.038;2024-02-26T04:09:46;2.35;;;0.85;;
59418;SDS011;45224;50.904;6.038;2024-02-26T04:11:17;1.45;;;0.88;;
59418;SDS011;45224;50.904;6.038;2024-02-26T04:12:48;1.63;;;1.13;;
59418;SDS011;45224;50.904;6.038;2024-02-26T04:14:19;3.10;;;0.85;;
59418;SDS011;45224;50.904;6.038;2024-02-26T04:15:49;2.47;;;0.95;;
59418;SDS011;45224;50.904;6.038;2024-02-26T04:17:20;1.27;;;1.00;;
59418;SDS011;45224;50.904;6.038;2024-02-26T04:18:50;2.45;;;1.08;;
59418;SDS011;45224;50.904;6.038;2024-02-26T04:20:21;2.22;;;1.27;;
59418;SDS011;45224;50.904;6.038;2024-02-26T04:21:51;1.58;;;1.02;;
59418;SDS011;45224;50.904;6.038;2024-02-26T04:23:22;1.75;;;1.05;;
59418;SDS011;45224;50.904;6.038;2024-02-26T04:24:53;1.10;;;0.95;;
59418;SDS011;45224;50.904;6.038;2024-02-26T04:26:23;1.42;;;0.80;;
59418;SDS011;45224;50.904;6.038;2024-02-26T04:27:54;1.98;;;1.00;;
59418;SDS011;45224;50.904;6.038;2024-02-26T04:29:24;1.13;;;1.02;;
59418;SDS011;45224;50.904;6.038;2024-02-26T04:30:55;1.23;;;0.90;;
59418;SDS011;45224;50.904;6.038;2024-02-26T04:32:26;1.88;;;1.02;;
59418;SDS011;45224;50.904;6.038;2024-02-26T04:33:56;1.05;;;0.70;;
59418;SDS011;45224;50.904;6.038;2024-02-26T04:35:27;1.10;;;0.73;;
59418;SDS011;45224;50.904;6.038;2024-02-26T04:36:57;1.30;;;1.08;;
59418;SDS011;45224;50.904;6.038;2024-02-26T04:38:27;2.13;;;0.98;;
59418;SDS011;45224;50.904;6.038;2024-02-26T04:39:58;1.58;;;0.73;;
59418;SDS011;45224;50.904;6.038;2024-02-26T04:41:29;1.02;;;0.77;;
59418;SDS011;45224;50.904;6.038;2024-02-26T04:43:00;2.47;;;0.98;;
59418;SDS011;45224;50.904;6.038;2024-02-26T04:44:30;2.78;;;1.02;;
59418;SDS011;45224;50.904;6.038;2024-02-26T04:46:01;1.58;;;0.75;;
59418;SDS011;45224;50.904;6.038;2024-02-26T04:47:31;2.42;;;0.90;;
59418;SDS011;45224;50.904;6.038;2024-02-26T04:49:01;1.35;;;1.00;;
59418;SDS011;45224;50.904;6.038;2024-02-26T04:50:32;1.52;;;0.90;;
59418;SDS011;45224;50.904;6.038;2024-02-26T04:52:04;1.35;;;0.80;;
59418;SDS011;45224;50.904;6.038;2024-02-26T04:53:34;1.67;;;0.82;;
59418;SDS011;45224;50.904;6.038;2024-02-26T04:55:05;1.38;;;0.90;;
59418;SDS011;45224;50.904;6.038;2024-02-26T04:56:36;0.75;;;0.63;;
59418;SDS011;45224;50.904;6.038;2024-02-26T04:58:06;5.20;;;1.63;;
59418;SDS011;45224;50.904;6.038;2024-02-26T04:59:36;3.17;;;0.90;;
59418;SDS011;45224;50.904;6.038;2024-02-26T05:01:07;2.03;;;1.00;;
59418;SDS011;45224;50.904;6.038;2024-02-26T05:02:40;0.90;;;0.80;;
59418;SDS011;45224;50.904;6.038;2024-02-26T05:04:10;2.28;;;1.60;;
59418;SDS011;45224;50.904;6.038;2024-02-26T05:05:44;2.20;;;1.20;;
59418;SDS011;45224;50.904;6.038;2024-02-26T05:07:15;3.50;;;1.30;;
59418;SDS011;45224;50.904;6.038;2024-02-26T05:08:47;1.45;;;0.88;;
59418;SDS011;45224;50.904;6.038;2024-02-26T05:10:18;3.83;;;1.13;;
59418;SDS011;45224;50.904;6.038;2024-02-26T05:11:48;1.38;;;0.90;;
59418;SDS011;45224;50.904;6.038;2024-02-26T05:13:18;3.78;;;0.80;;
59418;SDS011;45224;50.904;6.038;2024-02-26T05:14:49;1.15;;;0.88;;
59418;SDS011;45224;50.904;6.038;2024-02-26T05:16:19;1.95;;;0.70;;
59418;SDS011;45224;50.904;6.038;2024-02-26T05:17:51;1.65;;;0.90;;
59418;SDS011;45224;50.904;6.038;2024-02-26T05:19:22;3.13;;;1.15;;
59418;SDS011;45224;50.904;6.038;2024-02-26T05:20:53;1.63;;;0.98;;
59418;SDS011;45224;50.904;6.038;2024-02-26T05:22:23;1.20;;;0.75;;
59418;SDS011;45224;50.904;6.038;2024-02-26T05:23:54;1.40;;;0.95;;
59418;SDS011;45224;50.904;6.038;2024-02-26T05:25:24;0.95;;;0.82;;
59418;SDS011;45224;50.904;6.038;2024-02-26T05:26:55;1.10;;;0.70;;
59418;SDS011;45224;50.904;6.038;2024-02-26T05:28:25;2.78;;;0.90;;
59418;SDS011;45224;50.904;6.038;2024-02-26T05:29:56;1.20;;;0.80;;
59418;SDS011;45224;50.904;6.038;2024-02-26T05:31:26;0.85;;;0.60;;
59418;SDS011;45224;50.904;6.038;2024-02-26T05:32:58;1.38;;;0.63;;
59418;SDS011;45224;50.904;6.038;2024-02-26T05:34:29;1.90;;;0.90;;
59418;SDS011;45224;50.904;6.038;2024-02-26T05:36:00;1.35;;;0.75;;
59418;SDS011;45224;50.904;6.038;2024-02-26T05:37:34;0.60;;;0.52;;
59418;SDS011;45224;50.904;6.038;2024-02-26T05:39:04;0.93;;;0.65;;
59418;SDS011;45224;50.904;6.038;2024-02-26T05:40:35;1.25;;;0.77;;
59418;SDS011;45224;50.904;6.038;2024-02-26T05:42:05;1.30;;;0.70;;
59418;SDS011;45224;50.904;6.038;2024-02-26T05:43:36;2.15;;;0.52;;
59418;SDS011;45224;50.904;6.038;2024-02-26T05:45:06;0.75;;;0.65;;
59418;SDS011;45224;50.904;6.038;2024-02-26T05:46:37;1.10;;;0.73;;
59418;SDS011;45224;50.904;6.038;2024-02-26T05:48:08;1.67;;;0.90;;
59418;SDS011;45224;50.904;6.038;2024-02-26T05:49:38;4.97;;;0.90;;
59418;SDS011;45224;50.904;6.038;2024-02-26T05:51:09;1.10;;;0.68;;
59418;SDS011;45224;50.904;6.038;2024-02-26T05:52:39;1.75;;;0.90;;
59418;SDS011;45224;50.904;6.038;2024-02-26T05:54:10;1.90;;;0.85;;
59418;SDS011;45224;50.904;6.038;2024-02-26T05:55:40;3.40;;;0.88;;
59418;SDS011;45224;50.904;6.038;2024-02-26T05:57:11;0.88;;;0.70;;
59418;SDS011;45224;50.904;6.038;2024-02-26T05:58:41;1.63;;;0.90;;
59418;SDS011;45224;50.904;6.038;2024-02-26T06:00:12;3.60;;;1.10;;
59418;SDS011;45224;50.904;6.038;2024-02-26T06:01:43;2.13;;;1.23;;
59418;SDS011;45224;50.904;6.038;2024-02-26T06:03:13;1.10;;;0.70;;
59418;SDS011;45224;50.904;6.038;2024-02-26T06:04:43;1.00;;;0.90;;
59418;SDS011;45224;50.904;6.038;2024-02-26T06:06:14;1.63;;;1.08;;
59418;SDS011;45224;50.904;6.038;2024-02-26T06:07:45;1.77;;;0.73;;
59418;SDS011;45224;50.904;6.038;2024-02-26T06:09:15;1.60;;;0.93;;
59418;SDS011;45224;50.904;6.038;2024-02-26T06:10:46;1.83;;;1.15;;
59418;SDS011;45224;50.904;6.038;2024-02-26T06:12:16;1.35;;;0.93;;
59418;SDS011;45224;50.904;6.038;2024-02-26T06:13:47;2.17;;;1.00;;
59418;SDS011;45224;50.904;6.038;2024-02-26T06:15:17;1.77;;;1.20;;
59418;SDS011;45224;50.904;6.038;2024-02-26T06:16:47;3.15;;;1.20;;
59418;SDS011;45224;50.904;6.038;2024-02-26T06:18:18;1.42;;;1.08;;
59418;SDS011;45224;50.904;6.038;2024-02-26T06:19:48;2.20;;;1.00;;
59418;SDS011;45224;50.904;6.038;2024-02-26T06:21:19;1.95;;;1.25;;
59418;SDS011;45224;50.904;6.038;2024-02-26T06:22:50;1.67;;;1.20;;
59418;SDS011;45224;50.904;6.038;2024-02-26T06:24:21;2.45;;;1.40;;
59418;SDS011;45224;50.904;6.038;2024-02-26T06:25:52;3.65;;;1.40;;
59418;SDS011;45224;50.904;6.038;2024-02-26T06:27:23;1.42;;;0.90;;
59418;SDS011;45224;50.904;6.038;2024-02-26T06:28:54;1.27;;;0.95;;
59418;SDS011;45224;50.904;6.038;2024-02-26T06:30:24;1.58;;;1.00;;
59418;SDS011;45224;50.904;6.038;2024-02-26T06:31:55;1.42;;;1.08;;
59418;SDS011;45224;50.904;6.038;2024-02-26T06:33:25;1.60;;;1.00;;
59418;SDS011;45224;50.904;6.038;2024-02-26T06:34:56;2.05;;;0.82;;
59418;SDS011;45224;50.904;6.038;2024-02-26T06:36:26;2.13;;;0.93;;
59418;SDS011;45224;50.904;6.038;2024-02-26T06:37:57;2.25;;;1.00;;
59418;SDS011;45224;50.904;6.038;2024-02-26T06:39:27;3.85;;;1.20;;
59418;SDS011;45224;50.904;6.038;2024-02-26T06:40:58;2.53;;;1.40;;
59418;SDS011;45224;50.904;6.038;2024-02-26T06:42:28;1.15;;;0.88;;
59418;SDS011;45224;50.904;6.038;2024-02-26T06:43:59;2.58;;;1.40;;
59418;SDS011;45224;50.904;6.038;2024-02-26T06:45:30;2.97;;;1.40;;
59418;SDS011;45224;50.904;6.038;2024-02-26T06:47:01;2.47;;;1.30;;
59418;SDS011;45224;50.904;6.038;2024-02-26T06:48:31;4.47;;;1.50;;
59418;SDS011;45224;50.904;6.038;2024-02-26T06:50:02;1.98;;;1.10;;
59418;SDS011;45224;50.904;6.038;2024-02-26T06:51:33;3.08;;;1.08;;
59418;SDS011;45224;50.904;6.038;2024-02-26T06:53:03;1.85;;;1.27;;
59418;SDS011;45224;50.904;6.038;2024-02-26T06:54:34;2.75;;;1.38;;
59418;SDS011;45224;50.904;6.038;2024-02-26T06:56:04;1.90;;;1.30;;
59418;SDS011;45224;50.904;6.038;2024-02-26T06:57:35;3.45;;;1.92;;
59418;SDS011;45224;50.904;6.038;2024-02-26T06:59:05;2.85;;;1.55;;
59418;SDS011;45224;50.904;6.038;2024-02-26T07:00:36;2.38;;;1.45;;
59418;SDS011;45224;50.904;6.038;2024-02-26T07:02:06;2.58;;;1.58;;
59418;SDS011;45224;50.904;6.038;2024-02-26T07:03:37;1.95;;;1.20;;
59418;SDS011;45224;50.904;6.038;2024-02-26T07:05:07;2.03;;;1.02;;
59418;SDS011;45224;50.904;6.038;2024-02-26T07:06:39;1.67;;;1.35;;
59418;SDS011;45224;50.904;6.038;2024-02-26T07:08:09;2.92;;;1.40;;
59418;SDS011;45224;50.904;6.038;2024-02-26T07:09:41;2.92;;;1.75;;
59418;SDS011;45224;50.904;6.038;2024-02-26T07:11:12;3.22;;;1.50;;
59418;SDS011;45224;50.904;6.038;2024-02-26T07:12:43;2.72;;;1.95;;
59418;SDS011;45224;50.904;6.038;2024-02-26T07:14:13;1.85;;;1.40;;
59418;SDS011;45224;50.904;6.038;2024-02-26T07:15:44;2.30;;;1.40;;
59418;SDS011;45224;50.904;6.038;2024-02-26T07:17:14;2.92;;;1.20;;
59418;SDS011;45224;50.904;6.038;2024-02-26T07:18:46;3.28;;;1.60;;
59418;SDS011;45224;50.904;6.038;2024-02-26T07:20:16;2.92;;;1.63;;
59418;SDS011;45224;50.904;6.038;2024-02-26T07:21:48;2.50;;;1.70;;
59418;SDS011;45224;50.904;6.038;2024-02-26T07:23:18;3.42;;;1.63;;
59418;SDS011;45224;50.904;6.038;2024-02-26T07:24:49;3.03;;;1.58;;
59418;SDS011;45224;50.904;6.038;2024-02-26T07:26:20;3.72;;;1.65;;
59418;SDS011;45224;50.904;6.038;2024-02-26T07:27:50;3.83;;;2.03;;
59418;SDS011;45224;50.904;6.038;2024-02-26T07:29:21;2.33;;;1.65;;
59418;SDS011;45224;50.904;6.038;2024-02-26T07:30:51;2.47;;;1.83;;
59418;SDS011;45224;50.904;6.038;2024-02-26T07:32:22;3.13;;;2.03;;
59418;SDS011;45224;50.904;6.038;2024-02-26T07:33:52;2.70;;;1.77;;
59418;SDS011;45224;50.904;6.038;2024-02-26T07:35:23;4.13;;;2.28;;
59418;SDS011;45224;50.904;6.038;2024-02-26T07:36:53;3.88;;;2.42;;
59418;SDS011;45224;50.904;6.038;2024-02-26T07:38:24;3.15;;;2.08;;
59418;SDS011;45224;50.904;6.038;2024-02-26T07:39:54;4.15;;;2.58;;
59418;SDS011;45224;50.904;6.038;2024-02-26T07:41:25;3.35;;;2.30;;
59418;SDS011;45224;50.904;6.038;2024-02-26T07:42:55;3.22;;;2.22;;
59418;SDS011;45224;50.904;6.038;2024-02-26T07:44:26;3.60;;;2.50;;
59418;SDS011;45224;50.904;6.038;2024-02-26T07:45:57;3.35;;;2.17;;
59418;SDS011;45224;50.904;6.038;2024-02-26T07:47:27;2.78;;;2.20;;
59418;SDS011;45224;50.904;6.038;2024-02-26T07:48:58;3.90;;;2.40;;
59418;SDS011;45224;50.904;6.038;2024-02-26T07:50:28;4.30;;;2.35;;
59418;SDS011;45224;50.904;6.038;2024-02-26T07:51:59;3.53;;;2.38;;
59418;SDS011;45224;50.904;6.038;2024-02-26T07:53:29;5.72;;;2.10;;
59418;SDS011;45224;50.904;6.038;2024-02-26T07:55:00;3.17;;;2.03;;
59418;SDS011;45224;50.904;6.038;2024-02-26T07:56:31;4.78;;;2.67;;
59418;SDS011;45224;50.904;6.038;2024-02-26T07:58:01;4.13;;;2.40;;
59418;SDS011;45224;50.904;6.038;2024-02-26T07:59:32;4.88;;;2.30;;
59418;SDS011;45224;50.904;6.038;2024-02-26T08:01:02;3.78;;;2.45;;
59418;SDS011;45224;50.904;6.038;2024-02-26T08:02:33;2.70;;;2.05;;
59418;SDS011;45224;50.904;6.038;2024-02-26T08:04:04;2.95;;;2.08;;
59418;SDS011;45224;50.904;6.038;2024-02-26T08:05:35;4.90;;;2.30;;
59418;SDS011;45224;50.904;6.038;2024-02-26T08:07:06;4.78;;;2.40;;
59418;SDS011;45224;50.904;6.038;2024-02-26T08:08:36;3.83;;;2.22;;
59418;SDS011;45224;50.904;6.038;2024-02-26T08:10:07;4.18;;;2.50;;
59418;SDS011;45224;50.904;6.038;2024-02-26T08:11:38;5.78;;;2.42;;
59418;SDS011;45224;50.904;6.038;2024-02-26T08:13:08;4.25;;;2.33;;
59418;SDS011;45224;50.904;6.038;2024-02-26T08:14:39;5.82;;;2.88;;
59418;SDS011;45224;50.904;6.038;2024-02-26T08:16:10;5.65;;;2.30;;
59418;SDS011;45224;50.904;6.038;2024-02-26T08:17:40;4.80;;;2.47;;
59418;SDS011;45224;50.904;6.038;2024-02-26T08:19:11;5.15;;;2.60;;
59418;SDS011;45224;50.904;6.038;2024-02-26T08:22:14;2.78;;;2.05;;
59418;SDS011;45224;50.904;6.038;2024-02-26T08:23:47;5.07;;;2.28;;
59418;SDS011;45224;50.904;6.038;2024-02-26T08:25:17;3.63;;;2.60;;
59418;SDS011;45224;50.904;6.038;2024-02-26T08:26:48;4.40;;;2.15;;
59418;SDS011;45224;50.904;6.038;2024-02-26T08:28:18;5.35;;;2.70;;
59418;SDS011;45224;50.904;6.038;2024-02-26T08:29:49;3.00;;;2.33;;
59418;SDS011;45224;50.904;6.038;2024-02-26T08:31:20;3.15;;;2.60;;
59418;SDS011;45224;50.904;6.038;2024-02-26T08:32:50;2.90;;;1.95;;
59418;SDS011;45224;50.904;6.038;2024-02-26T08:34:22;3.10;;;2.47;;
59418;SDS011;45224;50.904;6.038;2024-02-26T08:35:53;3.95;;;2.45;;
59418;SDS011;45224;50.904;6.038;2024-02-26T08:37:23;5.97;;;2.58;;
59418;SDS011;45224;50.904;6.038;2024-02-26T08:38:53;4.65;;;1.83;;
59418;SDS011;45224;50.904;6.038;2024-02-26T08:40:24;3.55;;;2.33;;
59418;SDS011;45224;50.904;6.038;2024-02-26T08:41:54;4.30;;;2.60;;
59418;SDS011;45224;50.904;6.038;2024-02-26T08:43:25;5.35;;;2.30;;
59418;SDS011;45224;50.904;6.038;2024-02-26T08:44:55;2.75;;;2.05;;
59418;SDS011;45224;50.904;6.038;2024-02-26T08:46:26;3.33;;;1.90;;
59418;SDS011;45224;50.904;6.038;2024-02-26T08:47:56;3.78;;;2.58;;
59418;SDS011;45224;50.904;6.038;2024-02-26T08:49:28;6.45;;;2.97;;
59418;SDS011;45224;50.904;6.038;2024-02-26T08:50:58;5.35;;;2.63;;
59418;SDS011;45224;50.904;6.038;2024-02-26T08:52:29;4.85;;;3.10;;
59418;SDS011;45224;50.904;6.038;2024-02-26T08:53:59;7.53;;;2.88;;
59418;SDS011;45224;50.904;6.038;2024-02-26T08:55:30;4.88;;;2.45;;
59418;SDS011;45224;50.904;6.038;2024-02-26T08:57:00;4.75;;;2.25;;
59418;SDS011;45224;50.904;6.038;2024-02-26T08:58:31;3.85;;;2.10;;
59418;SDS011;45224;50.904;6.038;2024-02-26T09:00:02;5.50;;;2.33;;
59418;SDS011;45224;50.904;6.038;2024-02-26T09:01:32;4.00;;;2.30;;
59418;SDS011;45224;50.904;6.038;2024-02-26T09:03:03;3.58;;;2.75;;
59418;SDS011;45224;50.904;6.038;2024-02-26T09:04:33;3.25;;;2.33;;
59418;SDS011;45224;50.904;6.038;2024-02-26T09:06:04;6.57;;;2.72;;
59418;SDS011;45224;50.904;6.038;2024-02-26T09:07:36;2.70;;;2.03;;
59418;SDS011;45224;50.904;6.038;2024-02-26T09:09:06;5.03;;;2.72;;